KCKZ

Pennridge Airport

Perkasie, Pennsylvania, USA
METAR KCKZ 202055Z AUTO 31006G27KT 10SM BKN032 M04/M10 A2956 RMK AO2
Observed Flight Rules
Jan-20 @ 20:55 UTC (24 minutes ago) Visual Flight Rules
Wind Visibility Clouds
310° at 6 knots
 Gusting to 27 knots
10 miles
  • Broken at 3,200' AGL
Temperatures Readings
Current -4°C / 25°F
Dewpoint -10°C / 14°F
Humidity 63%
Altimeter 29.56" Hg
Pressure 1001.02 hPa
Elevation 173
METAR KCKZ 202055Z AUTO 31006G27KT 10SM BKN032 M04/M10 A2956 RMK AO2
Observed Flight Rules
Jan-20 @ 20:55 UTC
(24 minutes ago)
VFR
Wind Visibility
310° at 6 knots
 Gusting to 27 knots
10 miles
Clouds
  • Broken at 3,200' AGL
Temperature Dewpoint
-4°C / 25°F -10°C / 14°F
Humidity Altimeter Pressure
63% 29.56" Hg 1001.02 hPa